createdAt,value
2016-01-09T00:00:54.086Z,1.5
2016-01-09T00:01:54.041Z,1.5
2016-01-09T00:02:53.975Z,1.5
2016-01-09T00:03:53.916Z,1.6
2016-01-09T00:04:53.872Z,1.5
2016-01-09T00:05:53.811Z,1.6
2016-01-09T00:06:53.752Z,1.6
2016-01-09T00:07:53.692Z,1.6
2016-01-09T00:08:53.648Z,1.6
2016-01-09T00:09:53.588Z,1.6
2016-01-09T00:10:53.529Z,1.6
2016-01-09T00:11:53.468Z,1.6
2016-01-09T00:12:53.409Z,1.6
2016-01-09T00:13:53.365Z,1.6
2016-01-09T00:14:53.290Z,1.6
2016-01-09T00:15:53.245Z,1.5
2016-01-09T00:16:53.185Z,1.4
2016-01-09T00:17:53.141Z,1.3
2016-01-09T00:18:53.066Z,1.3
2016-01-09T00:19:53.021Z,1.3
2016-01-09T00:20:52.962Z,1.3
2016-01-09T00:21:52.902Z,1.2
2016-01-09T00:22:52.842Z,1.2
2016-01-09T00:23:52.782Z,1.1
2016-01-09T00:24:52.723Z,1
2016-01-09T00:25:52.678Z,1
2016-01-09T00:26:52.619Z,0.9
2016-01-09T00:27:52.558Z,0.9
2016-01-09T00:28:52.499Z,0.9
2016-01-09T00:29:52.440Z,0.8
2016-01-09T00:30:52.395Z,0.8
2016-01-09T00:31:52.336Z,0.7
2016-01-09T00:32:52.275Z,0.7
2016-01-09T00:33:52.216Z,0.6
2016-01-09T00:34:52.155Z,0.6
2016-01-09T00:35:52.097Z,0.5
2016-01-09T00:36:52.036Z,0.6
2016-01-09T00:37:51.992Z,0.6
2016-01-09T00:38:51.932Z,0.6
2016-01-09T00:39:51.872Z,0.7
2016-01-09T00:40:51.813Z,0.7
2016-01-09T00:41:51.753Z,0.8
2016-01-09T00:42:51.709Z,0.8
2016-01-09T00:43:51.649Z,0.7
2016-01-09T00:44:51.589Z,0.6
2016-01-09T00:45:51.530Z,0.4
2016-01-09T00:46:51.469Z,0.2
2016-01-09T00:47:51.410Z,0.1
2016-01-09T00:48:51.350Z,0
2016-01-09T00:49:51.291Z,0
2016-01-09T00:50:51.230Z,0.2
2016-01-09T00:51:51.186Z,0.3
2016-01-09T00:52:51.127Z,0.3
2016-01-09T00:53:51.066Z,0.3
2016-01-09T00:54:51.007Z,0.2
2016-01-09T00:55:50.946Z,0.1
2016-01-09T00:56:50.887Z,0.2
2016-01-09T00:57:50.827Z,0.1
2016-01-09T00:58:50.774Z,0.1
2016-01-09T00:59:50.714Z,0.1
2016-01-09T01:00:50.655Z,0.1
2016-01-09T01:01:50.595Z,0.1
2016-01-09T01:02:50.536Z,0.2
2016-01-09T01:03:50.475Z,0.1
2016-01-09T01:04:50.416Z,0.1
2016-01-09T01:05:50.372Z,-0.1
2016-01-09T01:06:50.296Z,-0.2
2016-01-09T01:07:50.252Z,-0.2
2016-01-09T01:08:50.191Z,-0.2
2016-01-09T01:09:50.132Z,-0.2
2016-01-09T01:10:50.069Z,-0.2
2016-01-09T01:11:50.010Z,-0.3
2016-01-09T01:12:49.950Z,-0.4
2016-01-09T01:13:49.891Z,-0.5
2016-01-09T01:14:49.830Z,-0.6
2016-01-09T01:15:49.771Z,-0.5
2016-01-09T01:16:49.711Z,-0.5
2016-01-09T01:17:49.651Z,-0.4
2016-01-09T01:18:49.591Z,-0.4
2016-01-09T01:19:49.548Z,-0.5
2016-01-09T01:20:49.488Z,-0.5
2016-01-09T01:21:49.428Z,-0.6
2016-01-09T01:22:49.368Z,-0.7
2016-01-09T01:23:49.309Z,-0.9
2016-01-09T01:24:49.249Z,-1
2016-01-09T01:25:49.189Z,-0.9
2016-01-09T01:26:49.129Z,-0.8
2016-01-09T01:27:49.069Z,-0.7
2016-01-09T01:28:49.009Z,-0.7
2016-01-09T01:29:48.950Z,-0.7
2016-01-09T01:30:48.906Z,-0.7
2016-01-09T01:31:48.830Z,-0.6
2016-01-09T01:32:48.787Z,-0.6
2016-01-09T01:33:48.726Z,-0.7
2016-01-09T01:34:48.667Z,-0.8
2016-01-09T01:35:48.607Z,-0.8
2016-01-09T01:36:48.578Z,-0.8
2016-01-09T01:37:48.487Z,-0.8
2016-01-09T01:38:48.428Z,-0.9
2016-01-09T01:39:48.367Z,-0.9
2016-01-09T01:40:48.308Z,-0.9
2016-01-09T01:41:48.263Z,-0.9
2016-01-09T01:42:48.188Z,-1
2016-01-09T01:43:48.128Z,-1.2
2016-01-09T01:44:48.069Z,-1.3
2016-01-09T01:45:48.008Z,-1.3
2016-01-09T01:46:47.964Z,-1.2
2016-01-09T01:47:47.904Z,-1.2
2016-01-09T01:48:47.844Z,-1.3
2016-01-09T01:49:47.785Z,-1.7
2016-01-09T01:50:47.725Z,-1.7
2016-01-09T01:51:47.666Z,-1.6
2016-01-09T01:52:47.605Z,-1.6
2016-01-09T01:53:47.546Z,-1.5
2016-01-09T01:54:47.486Z,-1.5
2016-01-09T01:55:47.427Z,-1.5
2016-01-09T01:56:47.367Z,-1.6
2016-01-09T01:57:47.307Z,-1.7
2016-01-09T01:58:47.246Z,-1.6
2016-01-09T01:59:47.188Z,-1.5
2016-01-09T02:00:47.127Z,-1.5
2016-01-09T02:01:47.068Z,-1.4
2016-01-09T02:02:47.007Z,-1.4
2016-01-09T02:03:46.963Z,-1.4
2016-01-09T02:04:46.888Z,-1.5
2016-01-09T02:05:46.829Z,-1.6
2016-01-09T02:06:46.768Z,-1.6
2016-01-09T02:07:46.709Z,-1.6
2016-01-09T02:08:46.649Z,-1.6
2016-01-09T02:09:46.605Z,-1.5
2016-01-09T02:10:46.529Z,-1.4
2016-01-09T02:11:46.485Z,-1.3
2016-01-09T02:12:46.426Z,-1.4
2016-01-09T02:13:46.365Z,-1.7
2016-01-09T02:14:46.306Z,-1.7
2016-01-09T02:15:46.246Z,-1.9
2016-01-09T02:16:46.170Z,-2
2016-01-09T02:17:46.127Z,-2
2016-01-09T02:18:46.067Z,-2
2016-01-09T02:19:46.007Z,-1.9
2016-01-09T02:20:45.948Z,-2.1
2016-01-09T02:21:45.887Z,-2.2
2016-01-09T02:22:45.812Z,-2.1
2016-01-09T02:23:45.768Z,-2.2
2016-01-09T02:24:45.709Z,-2.3
2016-01-09T02:25:45.648Z,-2.2
2016-01-09T02:26:45.589Z,-2.3
2016-01-09T02:27:45.528Z,-2.2
2016-01-09T02:28:45.469Z,-2.3
2016-01-09T02:29:45.409Z,-2.2
2016-01-09T02:30:45.350Z,-2.1
2016-01-09T02:31:45.289Z,-2
2016-01-09T02:32:45.230Z,-1.9
2016-01-09T02:33:45.170Z,-2
2016-01-09T02:34:45.110Z,-2
2016-01-09T02:35:45.050Z,-2.1
2016-01-09T02:36:44.991Z,-2.1
2016-01-09T02:37:44.930Z,-2
2016-01-09T02:38:44.872Z,-1.9
2016-01-09T02:39:44.811Z,-2
2016-01-09T02:40:44.752Z,-2
2016-01-09T02:41:44.692Z,-2.1
2016-01-09T02:42:44.632Z,-2.3
2016-01-09T02:43:44.569Z,-2.2
2016-01-09T02:44:44.526Z,-2.3
2016-01-09T02:45:44.450Z,-2.2
2016-01-09T02:46:44.390Z,-2.3
2016-01-09T02:47:44.329Z,-2.3
2016-01-09T02:48:44.271Z,-2.4
2016-01-09T02:49:44.211Z,-2.4
2016-01-09T02:50:44.151Z,-2.3
2016-01-09T02:51:44.091Z,-2.3
2016-01-09T02:52:44.032Z,-2.3
2016-01-09T02:53:43.988Z,-2.4
2016-01-09T02:54:43.911Z,-2.5
2016-01-09T02:55:43.852Z,-2.6
2016-01-09T02:56:43.792Z,-2.7
2016-01-09T02:57:43.748Z,-2.6
2016-01-09T02:58:43.673Z,-2.6
2016-01-09T02:59:43.612Z,-2.6
2016-01-09T03:00:43.553Z,-2.5
2016-01-09T03:01:43.493Z,-2.6
2016-01-09T03:02:43.449Z,-2.5
2016-01-09T03:03:43.389Z,-2.6
2016-01-09T03:04:43.314Z,-2.6
2016-01-09T03:05:43.254Z,-2.6
2016-01-09T03:06:43.210Z,-2.6
2016-01-09T03:07:43.134Z,-2.6
2016-01-09T03:08:43.075Z,-2.7
2016-01-09T03:09:43.014Z,-2.7
2016-01-09T03:10:42.955Z,-2.8
2016-01-09T03:11:42.895Z,-2.9
2016-01-09T03:12:42.836Z,-3
2016-01-09T03:13:42.775Z,-3.1
2016-01-09T03:14:42.716Z,-3.1
2016-01-09T03:15:42.655Z,-3.1
2016-01-09T03:16:42.612Z,-3.1
2016-01-09T03:17:42.536Z,-3.1
2016-01-09T03:18:42.477Z,-3
2016-01-09T03:19:42.433Z,-3
2016-01-09T03:20:42.358Z,-3.1
2016-01-09T03:21:42.297Z,-3
2016-01-09T03:22:42.238Z,-3
2016-01-09T03:23:42.177Z,-3.1
2016-01-09T03:24:42.118Z,-3.1
2016-01-09T03:25:42.058Z,-2.9
2016-01-09T03:26:41.999Z,-2.8
2016-01-09T03:27:41.938Z,-2.9
2016-01-09T03:28:41.879Z,-2.9
2016-01-09T03:29:41.819Z,-2.8
2016-01-09T03:30:41.760Z,-2.8
2016-01-09T03:31:41.699Z,-2.7
2016-01-09T03:32:41.640Z,-2.7
2016-01-09T03:33:41.580Z,-2.8
2016-01-09T03:34:41.521Z,-2.9
2016-01-09T03:35:41.460Z,-2.9
2016-01-09T03:36:41.401Z,-3
2016-01-09T03:37:41.326Z,-2.9
2016-01-09T03:38:41.265Z,-2.8
2016-01-09T03:39:41.206Z,-2.8
2016-01-09T03:40:41.145Z,-2.8
2016-01-09T03:41:41.086Z,-2.9
2016-01-09T03:42:41.058Z,-3.1
2016-01-09T03:43:40.982Z,-3.3
2016-01-09T03:44:40.907Z,-3.2
2016-01-09T03:45:40.862Z,-3
2016-01-09T03:46:40.787Z,-2.9
2016-01-09T03:47:40.727Z,-2.8
2016-01-09T03:48:40.668Z,-2.8
2016-01-09T03:49:40.609Z,-2.8
2016-01-09T03:50:40.548Z,-2.8
2016-01-09T03:51:40.489Z,-2.8
2016-01-09T03:52:40.428Z,-2.8
2016-01-09T03:53:40.384Z,-2.8
2016-01-09T03:54:40.309Z,-2.8
2016-01-09T03:55:40.250Z,-2.8
2016-01-09T03:56:40.189Z,-2.7
2016-01-09T03:57:40.129Z,-2.6
2016-01-09T03:58:40.070Z,-2.7
2016-01-09T03:59:40.010Z,-2.9
2016-01-09T04:00:39.949Z,-3
2016-01-09T04:01:39.891Z,-3.3
2016-01-09T04:02:39.831Z,-3.5
2016-01-09T04:03:39.771Z,-3.6
2016-01-09T04:04:39.711Z,-3.4
2016-01-09T04:05:39.652Z,-3.3
2016-01-09T04:06:39.591Z,-3.1
2016-01-09T04:07:39.532Z,-3.2
2016-01-09T04:08:39.456Z,-3.4
2016-01-09T04:09:39.413Z,-3.5
2016-01-09T04:10:39.352Z,-3.5
2016-01-09T04:11:39.276Z,-3.5
2016-01-09T04:12:39.233Z,-3.5
2016-01-09T04:13:39.157Z,-3.4
2016-01-09T04:14:39.097Z,-3.4
2016-01-09T04:15:39.054Z,-3.4
2016-01-09T04:16:38.978Z,-3.5
2016-01-09T04:17:38.918Z,-3.4
2016-01-09T04:18:38.874Z,-3.3
2016-01-09T04:19:38.814Z,-3.3
2016-01-09T04:20:38.754Z,-3.2
2016-01-09T04:21:38.679Z,-3.1
2016-01-09T04:22:38.619Z,-3
2016-01-09T04:23:38.559Z,-3
2016-01-09T04:24:38.500Z,-3.1
2016-01-09T04:25:38.439Z,-3.2
2016-01-09T04:26:38.380Z,-3.2
2016-01-09T04:27:38.320Z,-3.3
2016-01-09T04:28:38.260Z,-3.3
2016-01-09T04:29:38.200Z,-3.2
2016-01-09T04:30:38.122Z,-3
2016-01-09T04:31:38.063Z,-2.9
2016-01-09T04:32:38.019Z,-2.9
2016-01-09T04:33:37.959Z,-2.8
2016-01-09T04:34:37.884Z,-2.9
2016-01-09T04:35:37.823Z,-2.8
2016-01-09T04:36:37.763Z,-2.8
2016-01-09T04:37:37.704Z,-2.9
2016-01-09T04:38:37.644Z,-3
2016-01-09T04:39:37.585Z,-3
2016-01-09T04:40:37.525Z,-2.9
2016-01-09T04:41:37.465Z,-2.9
2016-01-09T04:42:37.405Z,-2.9
2016-01-09T04:43:37.346Z,-2.8
2016-01-09T04:44:37.285Z,-2.8
2016-01-09T04:45:37.226Z,-2.8
2016-01-09T04:46:37.166Z,-2.8
2016-01-09T04:47:37.121Z,-2.8
2016-01-09T04:48:37.046Z,-2.6
2016-01-09T04:49:36.987Z,-2.5
2016-01-09T04:50:36.927Z,-2.4
2016-01-09T04:51:36.868Z,-2.4
2016-01-09T04:52:36.806Z,-2.3
2016-01-09T04:53:36.748Z,-2.3
2016-01-09T04:54:36.688Z,-2.3
2016-01-09T04:55:36.628Z,-2.2
2016-01-09T04:56:36.567Z,-2.2
2016-01-09T04:57:36.509Z,-2.2
2016-01-09T04:58:36.448Z,-2.4
2016-01-09T04:59:36.389Z,-2.5
2016-01-09T05:00:36.345Z,-2.7
2016-01-09T05:01:36.315Z,-2.8
2016-01-09T05:02:36.209Z,-3
2016-01-09T05:03:36.150Z,-3
2016-01-09T05:04:36.090Z,-3.1
2016-01-09T05:05:36.030Z,-3.1
2016-01-09T05:06:35.970Z,-3.2
2016-01-09T05:07:35.911Z,-3.2
2016-01-09T05:08:35.851Z,-3.2
2016-01-09T05:09:35.792Z,-3.2
2016-01-09T05:10:35.747Z,-3.2
2016-01-09T05:11:35.672Z,-3.1
2016-01-09T05:12:35.612Z,-3
2016-01-09T05:13:35.552Z,-2.8
2016-01-09T05:14:35.492Z,-2.6
2016-01-09T05:15:35.433Z,-2.4
2016-01-09T05:16:35.373Z,-2.4
2016-01-09T05:17:35.313Z,-2.2
2016-01-09T05:18:35.253Z,-1.8
2016-01-09T05:19:35.193Z,-1.3
2016-01-09T05:20:35.133Z,-1
2016-01-09T05:21:35.074Z,-0.9
2016-01-09T05:22:35.013Z,-0.8
2016-01-09T05:23:34.954Z,-0.7
2016-01-09T05:24:34.894Z,-0.7
2016-01-09T05:25:34.835Z,-0.7
2016-01-09T05:26:34.775Z,-0.8
2016-01-09T05:27:34.715Z,-0.8
2016-01-09T05:28:34.655Z,-1
2016-01-09T05:29:34.596Z,-1.1
2016-01-09T05:30:34.535Z,-1.2
2016-01-09T05:31:34.491Z,-1.3
2016-01-09T05:32:34.416Z,-1.4
2016-01-09T05:33:34.357Z,-1.3
2016-01-09T05:34:34.312Z,-1.2
2016-01-09T05:35:34.252Z,-1.1
2016-01-09T05:36:34.193Z,-1
2016-01-09T05:37:34.132Z,-1
2016-01-09T05:38:34.073Z,-0.8
2016-01-09T05:39:34.013Z,-0.8
2016-01-09T05:40:33.953Z,-0.9
2016-01-09T05:41:33.893Z,-1
2016-01-09T05:42:33.834Z,-1
2016-01-09T05:43:33.773Z,-0.9
2016-01-09T05:44:33.714Z,-1.1
2016-01-09T05:45:33.670Z,-1.1
2016-01-09T05:46:33.595Z,-1
2016-01-09T05:47:33.551Z,-1
2016-01-09T05:48:33.490Z,-0.9
2016-01-09T05:49:33.431Z,-0.7
2016-01-09T05:50:33.371Z,-0.6
2016-01-09T05:51:33.311Z,-0.3
2016-01-09T05:52:33.251Z,-0.3
2016-01-09T05:53:33.192Z,-0.2
2016-01-09T05:54:33.131Z,-0.1
2016-01-09T05:55:33.072Z,0
2016-01-09T05:56:33.011Z,0
2016-01-09T05:57:32.953Z,-0.1
2016-01-09T05:58:32.892Z,-0.1
2016-01-09T05:59:32.833Z,-0.1
2016-01-09T06:00:32.772Z,-0.1
2016-01-09T06:01:32.713Z,-0.1
2016-01-09T06:02:32.653Z,-0.2
2016-01-09T06:03:32.594Z,-0.2
2016-01-09T06:04:32.550Z,-0.5
2016-01-09T06:05:32.489Z,-0.7
2016-01-09T06:06:32.430Z,-1
2016-01-09T06:07:32.369Z,-1
2016-01-09T06:08:32.310Z,-1.2
2016-01-09T06:09:32.250Z,-1.3
2016-01-09T06:10:32.191Z,-1.2
2016-01-09T06:11:32.128Z,-1.2
2016-01-09T06:12:32.068Z,-1.4
2016-01-09T06:13:32.008Z,-1.5
2016-01-09T06:14:31.948Z,-1.6
2016-01-09T06:15:31.888Z,-1.6
2016-01-09T06:16:31.823Z,-1.7
2016-01-09T06:17:31.768Z,-1.7
2016-01-09T06:18:31.698Z,-1.7
2016-01-09T06:19:31.627Z,-1.7
2016-01-09T06:20:31.558Z,-1.8
2016-01-09T06:21:31.491Z,-1.7
2016-01-09T06:22:31.428Z,-1.8
2016-01-09T06:23:31.364Z,-1.9
2016-01-09T06:24:31.301Z,-1.8
2016-01-09T06:25:31.236Z,-1.8
2016-01-09T06:26:31.175Z,-1.7
2016-01-09T06:27:31.114Z,-1.7
2016-01-09T06:28:31.053Z,-1.6
2016-01-09T06:29:30.992Z,-1.6
2016-01-09T06:30:30.931Z,-1.6
2016-01-09T06:31:30.870Z,-1.5
2016-01-09T06:32:30.811Z,-1.7
2016-01-09T06:33:30.750Z,-1.7
2016-01-09T06:34:30.691Z,-1.6
2016-01-09T06:35:30.630Z,-1.5
2016-01-09T06:36:30.571Z,-1.6
2016-01-09T06:37:30.510Z,-1.6
2016-01-09T06:38:30.465Z,-1.6
2016-01-09T06:39:30.389Z,-1.6
2016-01-09T06:40:30.330Z,-1.4
2016-01-09T06:41:30.269Z,-1.5
2016-01-09T06:42:30.224Z,-1.5
2016-01-09T06:43:30.166Z,-1.4
2016-01-09T06:44:30.105Z,-1.4
2016-01-09T06:45:30.046Z,-1.4
2016-01-09T06:46:29.986Z,-1.4
2016-01-09T06:47:29.926Z,-1.5
2016-01-09T06:48:29.866Z,-1.5
2016-01-09T06:49:29.807Z,-1.5
2016-01-09T06:50:29.746Z,-1.5
2016-01-09T06:51:29.687Z,-1.6
2016-01-09T06:52:29.627Z,-1.5
2016-01-09T06:53:29.568Z,-1.4
2016-01-09T06:54:29.507Z,-1.4
2016-01-09T06:55:29.463Z,-1.5
2016-01-09T06:56:29.388Z,-1.5
2016-01-09T06:57:29.343Z,-1.5
2016-01-09T06:58:29.284Z,-1.7
2016-01-09T06:59:29.224Z,-1.6
2016-01-09T07:00:29.165Z,-1.6
2016-01-09T07:01:29.105Z,-1.7
2016-01-09T07:02:29.045Z,-1.8
2016-01-09T07:03:28.985Z,-1.7
2016-01-09T07:04:28.925Z,-1.7
2016-01-09T07:05:28.865Z,-1.7
2016-01-09T07:06:28.806Z,-1.8
2016-01-09T07:07:28.745Z,-1.9
2016-01-09T07:08:28.686Z,-2
2016-01-09T07:09:28.626Z,-1.9
2016-01-09T07:10:28.567Z,-1.7
2016-01-09T07:11:28.506Z,-1.8
2016-01-09T07:12:28.447Z,-1.7
2016-01-09T07:13:28.387Z,-1.6
2016-01-09T07:14:28.328Z,-1.9
2016-01-09T07:15:28.267Z,-1.9
2016-01-09T07:16:28.208Z,-1.9
2016-01-09T07:17:28.164Z,-1.9
2016-01-09T07:18:28.089Z,-1.8
2016-01-09T07:19:28.044Z,-1.7
2016-01-09T07:20:27.984Z,-1.7
2016-01-09T07:21:27.924Z,-1.7
2016-01-09T07:22:27.864Z,-1.7
2016-01-09T07:23:27.805Z,-1.8
2016-01-09T07:24:27.730Z,-1.8
2016-01-09T07:25:27.685Z,-1.8
2016-01-09T07:26:27.626Z,-1.8
2016-01-09T07:27:27.565Z,-1.8
2016-01-09T07:28:27.505Z,-1.8
2016-01-09T07:29:27.447Z,-1.7
2016-01-09T07:30:27.386Z,-1.8
2016-01-09T07:31:27.326Z,-1.8
2016-01-09T07:32:27.283Z,-1.8
2016-01-09T07:33:27.207Z,-1.8
2016-01-09T07:34:27.147Z,-1.9
2016-01-09T07:35:27.088Z,-1.9
2016-01-09T07:36:27.028Z,-1.8
2016-01-09T07:37:26.984Z,-1.8
2016-01-09T07:38:26.907Z,-1.9
2016-01-09T07:39:26.848Z,-2
2016-01-09T07:40:26.804Z,-2.1
2016-01-09T07:41:26.745Z,-2
2016-01-09T07:42:26.668Z,-2.1
2016-01-09T07:43:26.625Z,-2.4
2016-01-09T07:44:26.565Z,-2.6
2016-01-09T07:45:26.506Z,-2.5
2016-01-09T07:46:26.445Z,-2.5
2016-01-09T07:47:26.386Z,-2.4
2016-01-09T07:48:26.325Z,-2.4
2016-01-09T07:49:26.282Z,-2.3
2016-01-09T07:50:26.254Z,-2.2
2016-01-09T07:51:26.147Z,-2.1
2016-01-09T07:52:26.087Z,-2.2
2016-01-09T07:53:26.027Z,-2.4
2016-01-09T07:54:25.967Z,-2.4
2016-01-09T07:55:25.908Z,-2.2
2016-01-09T07:56:25.878Z,-2
2016-01-09T07:57:25.788Z,-1.9
2016-01-09T07:58:25.759Z,-1.9
2016-01-09T07:59:25.669Z,-1.8
2016-01-09T08:00:25.608Z,-1.7
2016-01-09T08:01:25.546Z,-1.3
2016-01-09T08:02:25.486Z,-1
2016-01-09T08:03:25.427Z,-0.8
2016-01-09T08:04:25.366Z,-0.9
2016-01-09T08:05:25.307Z,-0.8
2016-01-09T08:06:25.247Z,-0.4
2016-01-09T08:07:25.188Z,-0.1
2016-01-09T08:08:25.143Z,0.3
2016-01-09T08:09:25.068Z,0.6
2016-01-09T08:10:25.008Z,0.9
2016-01-09T08:11:24.963Z,1.1
2016-01-09T08:12:24.888Z,1
2016-01-09T08:13:24.829Z,0.6
2016-01-09T08:14:24.769Z,0.4
2016-01-09T08:15:24.710Z,0.3
2016-01-09T08:16:24.649Z,0.3
2016-01-09T08:17:24.589Z,0.2
2016-01-09T08:18:24.529Z,-0.1
2016-01-09T08:19:24.470Z,-0.5
2016-01-09T08:20:24.473Z,-0.7
2016-01-09T08:21:24.351Z,-1
2016-01-09T08:22:24.290Z,-1.1
2016-01-09T08:23:24.231Z,-1.2
2016-01-09T08:24:24.187Z,-1.1
2016-01-09T08:25:24.127Z,-1.2
2016-01-09T08:26:24.051Z,-1
2016-01-09T08:27:24.007Z,-0.6
2016-01-09T08:28:23.947Z,0.2
2016-01-09T08:29:23.888Z,1.2
2016-01-09T08:30:23.828Z,2.1
2016-01-09T08:31:23.768Z,2.7
2016-01-09T08:32:23.709Z,3
2016-01-09T08:33:23.664Z,3.2
2016-01-09T08:34:23.604Z,3.3
2016-01-09T08:35:23.544Z,3.6
2016-01-09T08:36:23.484Z,3.7
2016-01-09T08:37:23.425Z,3.8
2016-01-09T08:38:23.364Z,4
2016-01-09T08:39:23.305Z,4.2
2016-01-09T08:40:23.261Z,4.4
2016-01-09T08:41:23.233Z,4.6
2016-01-09T08:42:23.172Z,4.9
2016-01-09T08:43:23.097Z,5.1
2016-01-09T08:44:23.038Z,5.3
2016-01-09T08:45:22.994Z,5.5
2016-01-09T08:46:22.933Z,5.6
2016-01-09T08:47:22.874Z,5.8
2016-01-09T08:48:22.830Z,5.9
2016-01-09T08:49:22.785Z,5.8
2016-01-09T08:50:22.725Z,6.1
2016-01-09T08:51:22.666Z,6.1
2016-01-09T08:52:22.622Z,5.9
2016-01-09T08:53:22.563Z,6
2016-01-09T08:54:22.502Z,5.9
2016-01-09T08:55:22.457Z,5.9
2016-01-09T08:56:22.414Z,5.8
2016-01-09T08:57:22.354Z,6
2016-01-09T08:58:22.294Z,6.2
2016-01-09T08:59:22.250Z,6.4
2016-01-09T09:00:22.190Z,6.5
2016-01-09T09:01:22.130Z,6.5
2016-01-09T09:02:22.087Z,6.6
2016-01-09T09:03:22.027Z,6.6
2016-01-09T09:04:21.982Z,6.5
2016-01-09T09:05:21.923Z,6.8
2016-01-09T09:06:21.878Z,6.9
2016-01-09T09:07:21.818Z,6.7
2016-01-09T09:08:21.775Z,6.6
2016-01-09T09:09:21.715Z,6.5
2016-01-09T09:10:21.654Z,6.6
2016-01-09T09:11:21.611Z,6.7
2016-01-09T09:12:21.567Z,7.1
2016-01-09T09:13:21.507Z,7.2
2016-01-09T09:14:21.462Z,6.9
2016-01-09T09:15:21.403Z,7
2016-01-09T09:16:21.359Z,7.2
2016-01-09T09:17:21.299Z,7.3
2016-01-09T09:18:21.255Z,7.3
2016-01-09T09:19:21.195Z,7.4
2016-01-09T09:20:21.150Z,7.3
2016-01-09T09:21:21.092Z,7.4
2016-01-09T09:22:21.047Z,7.5
2016-01-09T09:23:20.987Z,7.6
2016-01-09T09:24:20.942Z,7.9
2016-01-09T09:25:20.883Z,8.3
2016-01-09T09:26:20.839Z,8.4
2016-01-09T09:27:20.795Z,8.2
2016-01-09T09:28:20.750Z,7.9
2016-01-09T09:29:20.691Z,7.9
2016-01-09T09:30:20.647Z,8.2
2016-01-09T09:31:20.586Z,8.1
2016-01-09T09:32:20.543Z,8
2016-01-09T09:33:20.483Z,8.1
2016-01-09T09:34:20.439Z,8
2016-01-09T09:35:20.379Z,8
2016-01-09T09:36:20.335Z,8.4
2016-01-09T09:37:20.275Z,8.4
2016-01-09T09:38:20.230Z,8.4
2016-01-09T09:39:20.187Z,8.2
2016-01-09T09:40:20.127Z,8.2
2016-01-09T09:41:20.068Z,8.2
2016-01-09T09:42:20.023Z,8.1
2016-01-09T09:43:19.979Z,8
2016-01-09T09:44:19.919Z,8.1
2016-01-09T09:45:19.872Z,8
2016-01-09T09:46:19.828Z,8.2
2016-01-09T09:47:19.768Z,8.2
2016-01-09T09:48:19.709Z,8.1
2016-01-09T09:49:19.665Z,8.6
2016-01-09T09:50:19.620Z,9.2
2016-01-09T09:51:19.576Z,9.5
2016-01-09T09:52:19.515Z,9.7
2016-01-09T09:53:19.472Z,10
2016-01-09T09:54:19.428Z,10.2
2016-01-09T09:55:19.367Z,10.5
2016-01-09T09:56:19.324Z,10.5
2016-01-09T09:57:19.279Z,10.4
2016-01-09T09:58:19.219Z,10.1
2016-01-09T09:59:19.176Z,9.8
2016-01-09T10:00:19.116Z,9.7
2016-01-09T10:01:19.087Z,9.2
2016-01-09T10:02:19.027Z,8.9
2016-01-09T10:03:18.967Z,8.7
2016-01-09T10:04:18.923Z,8.6
2016-01-09T10:05:18.880Z,8.2
2016-01-09T10:06:18.819Z,8.5
2016-01-09T10:07:18.775Z,8.8
2016-01-09T10:08:18.716Z,8.4
2016-01-09T10:09:18.671Z,8.6
2016-01-09T10:10:18.627Z,8.4
2016-01-09T10:11:18.583Z,7.8
2016-01-09T10:12:18.539Z,6.7
2016-01-09T10:13:18.463Z,5.5
2016-01-09T10:14:18.404Z,4.9
2016-01-09T10:15:18.360Z,4.7
2016-01-09T10:16:18.300Z,4.5
2016-01-09T10:17:18.255Z,4.4
2016-01-09T10:18:18.196Z,4.8
2016-01-09T10:19:18.135Z,4.7
2016-01-09T10:20:18.091Z,4.5
2016-01-09T10:21:18.032Z,4.6
2016-01-09T10:22:17.988Z,4.6
2016-01-09T10:23:17.928Z,4.9
2016-01-09T10:24:17.868Z,4.9
2016-01-09T10:25:17.809Z,5.1
2016-01-09T10:26:17.764Z,5.4
2016-01-09T10:27:17.704Z,5.7
2016-01-09T10:28:17.659Z,6.4
2016-01-09T10:29:17.600Z,7.7
2016-01-09T10:30:17.540Z,8.9
2016-01-09T10:31:17.496Z,9.9
2016-01-09T10:32:17.453Z,10.5
2016-01-09T10:33:17.392Z,10.9
2016-01-09T10:34:17.333Z,11.1
2016-01-09T10:35:17.288Z,11
2016-01-09T10:36:17.245Z,10.5
2016-01-09T10:37:17.200Z,10.4
2016-01-09T10:38:17.156Z,10.5
2016-01-09T10:39:17.097Z,10.7
2016-01-09T10:40:17.053Z,11.4
2016-01-09T10:41:16.992Z,11.5
2016-01-09T10:42:16.948Z,11.9
2016-01-09T10:43:16.903Z,12.3
2016-01-09T10:44:16.860Z,12.4
2016-01-09T10:45:16.800Z,12.4
2016-01-09T10:46:16.756Z,12.3
2016-01-09T10:47:16.711Z,12.6
2016-01-09T10:48:16.652Z,12.3
2016-01-09T10:49:16.608Z,12.4
2016-01-09T10:50:16.564Z,12.2
2016-01-09T10:51:16.519Z,12.3
2016-01-09T10:52:16.460Z,12.1
2016-01-09T10:53:16.415Z,11.8
2016-01-09T10:54:16.371Z,10.2
2016-01-09T10:55:16.327Z,8.9
2016-01-09T10:56:16.268Z,8.2
2016-01-09T10:57:16.223Z,7.6
2016-01-09T10:58:16.163Z,6.9
2016-01-09T10:59:16.118Z,6.9
2016-01-09T11:00:16.060Z,6.8
2016-01-09T11:01:16.032Z,6.9
2016-01-09T11:02:15.955Z,6.6
2016-01-09T11:03:15.896Z,6.4
2016-01-09T11:04:15.852Z,6.2
2016-01-09T11:05:15.792Z,6
2016-01-09T11:06:15.748Z,6.1
2016-01-09T11:07:15.688Z,6.2
2016-01-09T11:08:15.643Z,6.5
2016-01-09T11:09:15.583Z,7.3
2016-01-09T11:10:15.524Z,8.5
2016-01-09T11:11:15.479Z,9.3
2016-01-09T11:12:15.436Z,9.6
2016-01-09T11:13:15.376Z,9.9
2016-01-09T11:14:15.316Z,9.9
2016-01-09T11:15:15.272Z,10.3
2016-01-09T11:16:15.228Z,10.6
2016-01-09T11:17:15.184Z,11.2
2016-01-09T11:18:15.124Z,11.2
2016-01-09T11:19:15.079Z,11.1
2016-01-09T11:20:15.020Z,10.9
2016-01-09T11:21:14.976Z,11.1
2016-01-09T11:22:14.931Z,10.7
2016-01-09T11:23:14.872Z,9.9
2016-01-09T11:24:14.827Z,8.9
2016-01-09T11:25:14.783Z,8.1
2016-01-09T11:26:14.724Z,7.7
2016-01-09T11:27:14.663Z,7.3
2016-01-09T11:28:14.620Z,7.2
2016-01-09T11:29:14.560Z,7.1
2016-01-09T11:30:14.500Z,7.1
2016-01-09T11:31:14.455Z,7
2016-01-09T11:32:14.411Z,7
2016-01-09T11:33:14.352Z,7.6
2016-01-09T11:34:14.291Z,8.7
2016-01-09T11:35:14.249Z,9.9
2016-01-09T11:36:14.204Z,10.6
2016-01-09T11:37:14.144Z,11
2016-01-09T11:38:14.100Z,11.3
2016-01-09T11:39:14.055Z,11.5
2016-01-09T11:40:13.996Z,10.7
2016-01-09T11:41:13.951Z,9.4
2016-01-09T11:42:13.892Z,8.1
2016-01-09T11:43:13.848Z,7.4
2016-01-09T11:44:13.787Z,6.9
2016-01-09T11:45:13.744Z,6.6
2016-01-09T11:46:13.684Z,6.4
2016-01-09T11:47:13.640Z,6.2
2016-01-09T11:48:13.580Z,6.1
2016-01-09T11:49:13.536Z,6
2016-01-09T11:50:13.476Z,6.1
2016-01-09T11:51:13.416Z,6.9
2016-01-09T11:52:13.372Z,8.3
2016-01-09T11:53:13.312Z,9.4
2016-01-09T11:54:13.268Z,9.9
2016-01-09T11:55:13.208Z,9.9
2016-01-09T11:56:13.164Z,10.3
2016-01-09T11:57:13.104Z,10.4
2016-01-09T11:58:13.061Z,10.2
2016-01-09T11:59:13.016Z,10.4
2016-01-09T12:00:12.969Z,10.8
2016-01-09T12:01:12.909Z,10.8
2016-01-09T12:02:12.849Z,10.7
2016-01-09T12:03:12.805Z,10.5
2016-01-09T12:04:12.761Z,10.6
2016-01-09T12:05:12.717Z,11.1
2016-01-09T12:06:12.657Z,12
2016-01-09T12:07:12.613Z,12.2
2016-01-09T12:08:12.569Z,12.5
2016-01-09T12:09:12.524Z,12.8
2016-01-09T12:10:12.465Z,12.7
2016-01-09T12:11:12.421Z,12.6
2016-01-09T12:12:12.377Z,12.5
2016-01-09T12:13:12.332Z,12.9
2016-01-09T12:14:12.272Z,13
2016-01-09T12:15:12.229Z,13.3
2016-01-09T12:16:12.184Z,13.2
2016-01-09T12:17:12.125Z,12.7
2016-01-09T12:18:12.080Z,12.9
2016-01-09T12:19:12.036Z,13.1
2016-01-09T12:20:11.992Z,12.9
2016-01-09T12:21:11.948Z,12.8
2016-01-09T12:22:11.888Z,12.5
2016-01-09T12:23:11.843Z,12
2016-01-09T12:24:11.799Z,12
2016-01-09T12:25:11.755Z,11.9
2016-01-09T12:26:11.712Z,12.4
2016-01-09T12:27:11.651Z,13.2
2016-01-09T12:28:11.607Z,13.7
2016-01-09T12:29:11.562Z,14.2
2016-01-09T12:30:11.519Z,14.9
2016-01-09T12:31:11.475Z,15.2
2016-01-09T12:32:11.431Z,14.9
2016-01-09T12:33:11.370Z,15
2016-01-09T12:34:11.327Z,15.3
2016-01-09T12:35:11.282Z,15.3
2016-01-09T12:36:11.239Z,15
2016-01-09T12:37:11.194Z,14.7
2016-01-09T12:38:11.150Z,14.3
2016-01-09T12:39:11.105Z,13.3
2016-01-09T12:40:11.062Z,12.7
2016-01-09T12:41:11.017Z,12.5
2016-01-09T12:42:10.973Z,13.1
2016-01-09T12:43:10.913Z,12.8
2016-01-09T12:44:10.870Z,12.1
2016-01-09T12:45:10.825Z,11.4
2016-01-09T12:46:10.765Z,11.4
2016-01-09T12:47:10.721Z,11.5
2016-01-09T12:48:10.677Z,11.2
2016-01-09T12:49:10.633Z,11.2
2016-01-09T12:50:10.589Z,11.3
2016-01-09T12:51:10.544Z,11.4
2016-01-09T12:52:10.485Z,11
2016-01-09T12:53:10.425Z,10.5
2016-01-09T12:54:10.380Z,10
2016-01-09T12:55:10.321Z,9.6
2016-01-09T12:56:10.277Z,9.5
2016-01-09T12:57:10.232Z,9.3
2016-01-09T12:58:10.188Z,9.1
2016-01-09T12:59:10.118Z,9.2
2016-01-09T13:00:10.074Z,9.8
2016-01-09T13:01:10.029Z,10
2016-01-09T13:02:09.970Z,10.3
2016-01-09T13:03:09.926Z,10.5
2016-01-09T13:04:09.865Z,11.2
2016-01-09T13:05:09.822Z,11.2
2016-01-09T13:06:09.778Z,11.2
2016-01-09T13:07:09.734Z,11.5
2016-01-09T13:08:09.674Z,12.1
2016-01-09T13:09:09.629Z,12.7
2016-01-09T13:10:09.585Z,13.2
2016-01-09T13:11:09.526Z,13.5
2016-01-09T13:12:09.481Z,13.7
2016-01-09T13:13:09.437Z,13.8
2016-01-09T13:14:09.393Z,13.8
2016-01-09T13:15:09.334Z,14.2
2016-01-09T13:16:09.290Z,14.6
2016-01-09T13:17:09.245Z,14.6
2016-01-09T13:18:09.201Z,14.4
2016-01-09T13:19:09.141Z,13.9
2016-01-09T13:20:09.113Z,13.5
2016-01-09T13:21:09.052Z,13.4
2016-01-09T13:22:09.039Z,13.7
2016-01-09T13:23:08.964Z,13.7
2016-01-09T13:24:08.920Z,13.2
2016-01-09T13:25:08.860Z,13.1
2016-01-09T13:26:08.816Z,12.9
2016-01-09T13:27:08.772Z,12.1
2016-01-09T13:28:08.727Z,11.3
2016-01-09T13:29:08.668Z,10.7
2016-01-09T13:30:08.624Z,11.1
2016-01-09T13:31:08.580Z,11.8